createdAt,value
2019-02-18T00:01:48.492Z,3.30
2019-02-18T00:04:16.997Z,3.20
2019-02-18T00:06:44.677Z,3.30
2019-02-18T00:09:12.236Z,3.30
2019-02-18T00:11:39.807Z,3.30
2019-02-18T00:14:07.441Z,3.40
2019-02-18T00:16:34.995Z,3.40
2019-02-18T00:19:02.553Z,3.40
2019-02-18T00:21:30.122Z,3.40
2019-02-18T00:23:57.678Z,3.40
2019-02-18T00:26:27.197Z,3.30
2019-02-18T00:28:54.757Z,3.20
2019-02-18T00:31:22.324Z,3.20
2019-02-18T00:33:51.821Z,3.20
2019-02-18T00:36:19.390Z,3.10
2019-02-18T00:38:46.944Z,3.10
2019-02-18T00:41:14.512Z,3.00
2019-02-18T00:43:42.071Z,3.00
2019-02-18T00:46:09.631Z,3.00
2019-02-18T00:48:37.183Z,3.00
2019-02-18T00:51:04.746Z,3.00
2019-02-18T00:53:33.069Z,3.00
2019-02-18T00:56:00.637Z,3.00
2019-02-18T00:58:28.208Z,3.00
2019-02-18T01:00:55.769Z,2.90
2019-02-18T01:03:23.357Z,2.90
2019-02-18T01:05:50.932Z,2.80
2019-02-18T01:08:18.491Z,2.80
2019-02-18T01:10:46.065Z,2.70
2019-02-18T01:13:13.629Z,2.60
2019-02-18T01:15:42.118Z,2.70
2019-02-18T01:18:09.692Z,2.80
2019-02-18T01:20:38.175Z,2.80
2019-02-18T01:23:05.740Z,2.80
2019-02-18T01:25:33.307Z,2.80
2019-02-18T01:28:00.871Z,2.80
2019-02-18T01:30:28.440Z,2.70
2019-02-18T01:32:56.010Z,2.70
2019-02-18T01:35:23.571Z,2.70
2019-02-18T01:37:52.096Z,2.80
2019-02-18T01:40:19.673Z,2.80
2019-02-18T01:42:47.234Z,2.80
2019-02-18T01:45:14.804Z,2.70
2019-02-18T01:47:44.310Z,2.50
2019-02-18T01:50:14.010Z,2.50
2019-02-18T01:52:41.581Z,2.50
2019-02-18T01:55:09.140Z,2.40
2019-02-18T01:57:36.699Z,2.40
2019-02-18T02:00:04.261Z,2.40
2019-02-18T02:02:31.824Z,2.40
2019-02-18T02:05:01.340Z,2.50
2019-02-18T02:07:29.848Z,2.50
2019-02-18T02:09:57.415Z,2.50
2019-02-18T02:12:24.977Z,2.40
2019-02-18T02:14:53.460Z,2.30
2019-02-18T02:17:21.019Z,2.30
2019-02-18T02:19:50.346Z,2.30
2019-02-18T02:22:17.906Z,2.30
2019-02-18T02:24:45.606Z,2.30
2019-02-18T02:27:14.269Z,2.40
2019-02-18T02:29:41.827Z,2.50
2019-02-18T02:32:11.306Z,2.50
2019-02-18T02:34:38.875Z,2.40
2019-02-18T02:37:07.446Z,2.30
2019-02-18T02:39:35.017Z,2.30
2019-02-18T02:42:02.577Z,2.30
2019-02-18T02:44:30.131Z,2.30
2019-02-18T02:46:57.695Z,2.30
2019-02-18T02:49:25.256Z,2.20
2019-02-18T02:51:53.768Z,2.20
2019-02-18T02:54:21.331Z,2.20
2019-02-18T02:56:48.887Z,2.20
2019-02-18T02:59:16.460Z,2.10
2019-02-18T03:01:44.023Z,2.20
2019-02-18T03:04:11.585Z,2.20
2019-02-18T03:06:39.906Z,2.20
2019-02-18T03:09:08.378Z,2.10
2019-02-18T03:11:35.940Z,2.20
2019-02-18T03:14:03.508Z,2.10
2019-02-18T03:16:32.953Z,2.10
2019-02-18T03:19:00.521Z,2.10
2019-02-18T03:21:28.095Z,2.00
2019-02-18T03:23:55.672Z,2.00
2019-02-18T03:26:23.240Z,2.00
2019-02-18T03:31:52.928Z,2.00
2019-02-18T03:34:22.405Z,2.10
2019-02-18T03:36:49.967Z,2.10
2019-02-18T03:39:19.210Z,2.10
2019-02-18T03:41:46.767Z,2.10
2019-02-18T03:44:14.323Z,2.00
2019-02-18T03:46:43.811Z,2.00
2019-02-18T03:49:12.337Z,2.10
2019-02-18T03:51:39.920Z,2.10
2019-02-18T03:54:08.248Z,2.20
2019-02-18T03:56:35.830Z,2.20
2019-02-18T03:59:03.396Z,2.10
2019-02-18T04:01:30.959Z,2.10
2019-02-18T04:04:01.248Z,2.10
2019-02-18T04:06:28.809Z,2.10
2019-02-18T04:08:56.372Z,2.20
2019-02-18T04:11:23.931Z,2.20
2019-02-18T04:13:51.496Z,2.20
2019-02-18T04:16:19.127Z,2.20
2019-02-18T04:18:46.781Z,2.10
2019-02-18T04:21:14.336Z,2.10
2019-02-18T04:23:41.913Z,2.00
2019-02-18T04:26:09.474Z,2.00
2019-02-18T04:28:37.031Z,2.00
2019-02-18T04:31:04.590Z,2.00
2019-02-18T04:33:32.154Z,2.00
2019-02-18T04:35:59.720Z,2.00
2019-02-18T04:38:27.287Z,2.10
2019-02-18T04:40:54.854Z,2.10
2019-02-18T04:43:25.103Z,1.90
2019-02-18T04:45:52.655Z,2.00
2019-02-18T04:48:20.224Z,1.90
2019-02-18T04:50:47.787Z,1.90
2019-02-18T04:53:15.357Z,1.90
2019-02-18T04:55:42.928Z,1.90
2019-02-18T04:58:10.491Z,1.90
2019-02-18T05:00:38.043Z,1.90
2019-02-18T05:03:05.623Z,1.90
2019-02-18T05:05:34.114Z,1.90
2019-02-18T05:08:01.671Z,2.00
2019-02-18T05:10:29.231Z,1.90
2019-02-18T05:12:57.561Z,2.00
2019-02-18T05:15:25.131Z,2.00
2019-02-18T05:17:52.699Z,2.00
2019-02-18T05:20:20.266Z,2.00
2019-02-18T05:22:48.595Z,2.00
2019-02-18T05:25:16.160Z,2.00
2019-02-18T05:27:43.719Z,2.00
2019-02-18T05:30:11.294Z,2.00
2019-02-18T05:32:40.775Z,1.90
2019-02-18T05:35:08.332Z,1.90
2019-02-18T05:37:35.897Z,1.90
2019-02-18T05:40:03.465Z,1.80
2019-02-18T05:42:31.024Z,1.80
2019-02-18T05:44:58.583Z,1.80
2019-02-18T05:47:26.143Z,1.90
2019-02-18T05:49:53.737Z,1.80
2019-02-18T05:52:22.055Z,1.80
2019-02-18T05:54:49.623Z,1.80
2019-02-18T05:57:18.116Z,1.80
2019-02-18T05:59:45.683Z,1.90
2019-02-18T06:02:13.247Z,2.00
2019-02-18T06:04:41.774Z,2.00
2019-02-18T06:07:09.650Z,2.00
2019-02-18T06:09:37.211Z,2.00
2019-02-18T06:12:04.771Z,2.00
2019-02-18T06:14:32.331Z,2.00
2019-02-18T06:16:59.908Z,2.00
2019-02-18T06:19:27.473Z,2.00
2019-02-18T06:21:55.949Z,1.90
2019-02-18T06:24:23.511Z,1.90
2019-02-18T06:26:51.073Z,1.80
2019-02-18T06:29:20.371Z,1.70
2019-02-18T06:31:47.933Z,1.70
2019-02-18T06:34:15.501Z,1.70
2019-02-18T06:36:44.050Z,1.80
2019-02-18T06:39:11.611Z,1.80
2019-02-18T06:41:39.196Z,1.70
2019-02-18T06:44:06.760Z,1.70
2019-02-18T06:46:34.320Z,1.80
2019-02-18T06:49:11.705Z,1.80
2019-02-18T06:51:40.035Z,1.80
2019-02-18T06:54:07.603Z,1.80
2019-02-18T06:56:50.994Z,1.90
2019-02-18T06:59:21.071Z,1.90
2019-02-18T07:01:49.152Z,2.00
2019-02-18T07:04:19.320Z,2.00
2019-02-18T07:06:47.794Z,2.00
2019-02-18T07:09:22.089Z,2.00
2019-02-18T07:12:07.359Z,2.00
2019-02-18T07:14:34.912Z,2.00
2019-02-18T07:17:02.483Z,2.10
2019-02-18T07:19:30.090Z,2.20
2019-02-18T07:21:57.677Z,2.00
2019-02-18T07:24:25.281Z,2.10
2019-02-18T07:26:52.862Z,2.20
2019-02-18T07:29:20.420Z,2.40
2019-02-18T07:31:47.999Z,2.60
2019-02-18T07:34:15.580Z,2.60
2019-02-18T07:36:43.141Z,2.70
2019-02-18T07:39:10.698Z,2.80
2019-02-18T07:41:38.257Z,2.90
2019-02-18T07:44:05.817Z,2.90
2019-02-18T07:46:34.350Z,3.00
2019-02-18T07:49:01.915Z,3.00
2019-02-18T07:51:31.204Z,3.30
2019-02-18T07:53:59.522Z,3.40
2019-02-18T07:56:28.983Z,3.40
2019-02-18T07:58:56.540Z,3.50
2019-02-18T08:01:24.099Z,3.80
2019-02-18T08:03:52.423Z,4.10
2019-02-18T08:06:19.979Z,4.00
2019-02-18T08:08:47.540Z,4.20
2019-02-18T08:11:15.091Z,4.30
2019-02-18T08:13:42.647Z,4.50
2019-02-18T08:16:10.195Z,4.70
2019-02-18T08:18:37.752Z,4.90
2019-02-18T08:21:05.309Z,5.10
2019-02-18T08:23:32.863Z,5.30
2019-02-18T08:26:00.415Z,5.40
2019-02-18T08:28:27.985Z,5.60
2019-02-18T08:30:55.547Z,5.80
2019-02-18T08:33:24.071Z,6.10
2019-02-18T08:35:53.556Z,6.20
2019-02-18T08:38:21.145Z,6.40
2019-02-18T08:40:49.468Z,6.90
2019-02-18T08:43:17.022Z,6.80
2019-02-18T08:45:44.576Z,7.00
2019-02-18T08:48:12.132Z,7.20
2019-02-18T08:50:39.683Z,7.30
2019-02-18T08:53:08.259Z,7.40
2019-02-18T08:55:36.755Z,7.60
2019-02-18T08:58:04.354Z,7.80
2019-02-18T09:00:31.915Z,8.00
2019-02-18T09:03:01.415Z,8.20
2019-02-18T09:05:28.973Z,8.40
2019-02-18T09:07:56.531Z,8.60
2019-02-18T09:10:33.157Z,8.80
2019-02-18T09:12:52.633Z,9.00
2019-02-18T09:15:20.280Z,9.20
2019-02-18T09:17:47.835Z,9.40
2019-02-18T09:20:15.392Z,9.50
2019-02-18T09:22:43.860Z,9.70
2019-02-18T09:25:13.829Z,9.80
2019-02-18T09:27:42.327Z,9.90
2019-02-18T09:30:09.891Z,10.10
2019-02-18T09:32:37.446Z,10.30
2019-02-18T09:35:07.683Z,10.40
2019-02-18T09:37:35.251Z,10.40
2019-02-18T09:40:02.810Z,10.40
2019-02-18T09:42:30.376Z,10.50
2019-02-18T09:44:59.875Z,10.60
2019-02-18T09:47:28.391Z,10.70
2019-02-18T09:49:55.951Z,10.90
2019-02-18T09:52:24.483Z,10.90
2019-02-18T09:54:52.044Z,11.10
2019-02-18T09:57:21.525Z,11.20
2019-02-18T09:59:49.104Z,11.20
2019-02-18T10:02:16.663Z,11.30
2019-02-18T10:04:44.224Z,11.50
2019-02-18T10:07:11.780Z,11.40
2019-02-18T10:09:39.339Z,11.60
2019-02-18T10:12:15.974Z,11.60
2019-02-18T10:14:35.468Z,11.90
2019-02-18T10:17:03.043Z,11.80
2019-02-18T10:19:32.515Z,12.00
2019-02-18T10:22:00.087Z,12.10
2019-02-18T10:24:27.654Z,12.10
2019-02-18T10:26:55.214Z,12.30
2019-02-18T10:29:22.774Z,12.50
2019-02-18T10:31:52.255Z,12.60
2019-02-18T10:34:20.772Z,12.70
2019-02-18T10:36:50.216Z,12.90
2019-02-18T10:39:17.780Z,13.00
2019-02-18T10:41:46.107Z,13.30
2019-02-18T10:44:14.598Z,13.30
2019-02-18T10:46:42.159Z,13.30
2019-02-18T10:49:19.288Z,13.20
2019-02-18T10:51:37.367Z,13.30
2019-02-18T10:54:04.979Z,13.30
2019-02-18T10:56:32.559Z,13.20
2019-02-18T10:59:00.131Z,13.30
2019-02-18T11:01:27.704Z,13.30
2019-02-18T11:03:56.048Z,13.40
2019-02-18T11:06:23.618Z,13.30
2019-02-18T11:08:51.186Z,13.40
2019-02-18T11:11:18.744Z,13.50
2019-02-18T11:13:46.295Z,13.60
2019-02-18T11:16:13.863Z,13.70
2019-02-18T11:18:41.435Z,13.80
2019-02-18T11:21:09.042Z,14.00
2019-02-18T11:23:36.609Z,14.00
2019-02-18T11:26:04.176Z,13.80
2019-02-18T11:28:31.740Z,14.10
2019-02-18T11:30:59.301Z,14.20
2019-02-18T11:33:26.868Z,14.40
2019-02-18T11:35:54.430Z,14.70
2019-02-18T11:38:22.014Z,14.70
2019-02-18T11:40:49.581Z,14.80
2019-02-18T11:43:17.142Z,15.00
2019-02-18T11:45:44.713Z,15.10
2019-02-18T11:48:12.295Z,15.30
2019-02-18T11:50:39.862Z,15.00
2019-02-18T11:53:09.399Z,15.00
2019-02-18T11:55:38.927Z,15.20
2019-02-18T11:58:04.564Z,15.30
2019-02-18T12:00:32.123Z,15.30
2019-02-18T12:03:03.606Z,15.40
2019-02-18T12:05:27.396Z,15.70
2019-02-18T12:07:54.968Z,15.40
2019-02-18T12:10:22.581Z,15.80
2019-02-18T12:12:52.079Z,16.00
2019-02-18T12:15:19.655Z,16.10
2019-02-18T12:17:49.155Z,16.20
2019-02-18T12:20:16.735Z,16.00
2019-02-18T12:22:44.307Z,15.90
2019-02-18T12:25:12.183Z,16.00
2019-02-18T12:27:39.802Z,15.80
2019-02-18T12:30:10.879Z,16.00
2019-02-18T12:32:38.465Z,16.10
2019-02-18T12:35:06.039Z,16.10
2019-02-18T12:37:33.603Z,16.20
2019-02-18T12:40:01.167Z,16.40
2019-02-18T12:42:28.739Z,16.40
2019-02-18T12:44:56.324Z,16.50
2019-02-18T12:47:23.895Z,16.60
2019-02-18T12:49:52.411Z,16.60
2019-02-18T12:52:19.995Z,16.60
2019-02-18T12:54:47.732Z,16.70
2019-02-18T12:57:15.195Z,16.80
2019-02-18T12:59:42.836Z,16.60
2019-02-18T13:02:10.381Z,16.60
2019-02-18T13:04:37.983Z,16.60
2019-02-18T13:07:05.695Z,16.60
2019-02-18T13:09:33.197Z,16.50
2019-02-18T13:12:01.715Z,16.20
2019-02-18T13:14:30.224Z,16.10
2019-02-18T13:16:57.811Z,16.10
2019-02-18T13:19:26.375Z,16.10
2019-02-18T13:21:56.758Z,16.30
2019-02-18T13:24:24.335Z,16.50
2019-02-18T13:26:51.927Z,16.50
2019-02-18T13:29:21.475Z,16.60
2019-02-18T13:31:49.061Z,16.70
2019-02-18T13:34:16.635Z,16.60
2019-02-18T13:36:44.208Z,16.50
2019-02-18T13:39:11.788Z,16.50
2019-02-18T13:41:41.275Z,16.70
2019-02-18T13:44:08.843Z,16.80
2019-02-18T13:46:36.420Z,16.70
2019-02-18T13:49:03.994Z,16.70
2019-02-18T13:51:31.567Z,16.70
2019-02-18T13:53:59.143Z,17.10
2019-02-18T13:56:27.476Z,17.40
2019-02-18T13:58:56.979Z,17.40
2019-02-18T14:01:24.555Z,17.60
2019-02-18T14:03:52.139Z,17.70
2019-02-18T14:06:19.715Z,17.30
2019-02-18T14:08:47.290Z,17.50
2019-02-18T14:11:15.792Z,17.60
2019-02-18T14:13:43.397Z,17.50
2019-02-18T14:16:11.933Z,18.00
2019-02-18T14:18:39.517Z,18.00
2019-02-18T14:21:08.956Z,17.90
2019-02-18T14:23:38.227Z,17.90
2019-02-18T14:26:05.806Z,17.90
2019-02-18T14:28:33.407Z,17.60
2019-02-18T14:31:01.012Z,17.80
2019-02-18T14:33:28.588Z,17.50
2019-02-18T14:35:56.173Z,17.70
2019-02-18T14:38:23.747Z,17.90
2019-02-18T14:40:51.323Z,18.10
2019-02-18T14:43:18.895Z,18.10
2019-02-18T14:45:46.483Z,18.20
2019-02-18T14:48:14.055Z,18.20
2019-02-18T14:50:41.633Z,18.50
2019-02-18T14:53:09.211Z,18.40
2019-02-18T14:55:36.783Z,18.50
2019-02-18T14:58:04.367Z,18.40
2019-02-18T15:00:31.939Z,18.20
2019-02-18T15:02:59.515Z,18.20
2019-02-18T15:05:27.898Z,17.70
2019-02-18T15:07:57.391Z,17.60
2019-02-18T15:10:25.007Z,17.60
2019-02-18T15:12:52.629Z,17.50
2019-02-18T15:15:20.214Z,17.00
2019-02-18T15:17:47.786Z,16.70
2019-02-18T15:20:15.376Z,16.40
2019-02-18T15:22:42.956Z,16.10
2019-02-18T15:25:10.543Z,15.90
2019-02-18T15:27:38.115Z,15.80
2019-02-18T15:30:10.415Z,15.50
2019-02-18T15:32:37.986Z,15.20
2019-02-18T15:35:05.576Z,15.00
2019-02-18T15:37:33.183Z,14.90
2019-02-18T15:40:00.772Z,14.80
2019-02-18T15:42:28.349Z,14.80
2019-02-18T15:44:55.933Z,14.70
2019-02-18T15:47:24.283Z,14.40
2019-02-18T15:49:51.860Z,14.40
2019-02-18T15:52:19.436Z,14.50
2019-02-18T15:54:47.047Z,14.40
2019-02-18T15:57:14.628Z,14.30
2019-02-18T15:59:42.201Z,14.10
2019-02-18T16:02:09.782Z,13.70
2019-02-18T16:04:37.504Z,13.40
2019-02-18T16:07:05.848Z,12.80
2019-02-18T16:09:33.438Z,12.70
2019-02-18T16:12:01.047Z,12.50
2019-02-18T16:14:28.632Z,12.30
2019-02-18T16:16:56.208Z,12.20
2019-02-18T16:19:24.564Z,11.80
2019-02-18T16:21:52.148Z,11.80
2019-02-18T16:24:20.368Z,11.70
2019-02-18T16:26:47.335Z,11.60
2019-02-18T16:29:14.947Z,11.30
2019-02-18T16:31:42.524Z,11.20
2019-02-18T16:34:10.139Z,11.10
2019-02-18T16:36:37.726Z,10.90
2019-02-18T16:39:05.387Z,10.80
2019-02-18T16:41:32.980Z,10.70
2019-02-18T16:44:00.555Z,10.60
2019-02-18T16:46:28.171Z,10.40
2019-02-18T16:48:55.786Z,10.30
2019-02-18T16:51:23.360Z,10.10
2019-02-18T16:53:52.663Z,9.90
2019-02-18T16:56:20.240Z,9.80
2019-02-18T16:58:47.803Z,9.70
2019-02-18T17:01:15.415Z,9.60
2019-02-18T17:03:44.915Z,9.60
2019-02-18T17:06:13.270Z,9.30
2019-02-18T17:08:40.847Z,9.20
2019-02-18T17:11:10.343Z,9.20
2019-02-18T17:13:39.855Z,9.20
2019-02-18T17:16:07.479Z,9.10
2019-02-18T17:18:35.095Z,9.10
2019-02-18T17:21:02.672Z,9.00
2019-02-18T17:23:30.239Z,9.00
2019-02-18T17:25:57.807Z,8.90
2019-02-18T17:28:25.384Z,8.80
2019-02-18T17:30:52.967Z,8.90
2019-02-18T17:33:20.547Z,8.70
2019-02-18T17:35:48.155Z,8.60
2019-02-18T17:38:15.743Z,8.60
2019-02-18T17:40:44.091Z,8.70
2019-02-18T17:43:16.407Z,8.70
2019-02-18T17:45:39.287Z,8.60
2019-02-18T17:48:06.860Z,8.50
2019-02-18T17:50:34.443Z,8.50
2019-02-18T17:53:02.043Z,8.50
2019-02-18T17:55:31.534Z,8.60
2019-02-18T17:57:59.099Z,8.70
2019-02-18T18:00:29.266Z,8.70
2019-02-18T18:02:56.837Z,8.70
2019-02-18T18:05:24.420Z,8.60
2019-02-18T18:07:51.993Z,8.50
2019-02-18T18:10:21.496Z,8.30
2019-02-18T18:12:49.079Z,8.10
2019-02-18T18:15:16.744Z,8.00
2019-02-18T18:17:44.311Z,7.90
2019-02-18T18:20:12.215Z,7.80
2019-02-18T18:22:39.787Z,7.70
2019-02-18T18:25:07.373Z,7.80
2019-02-18T18:27:34.959Z,7.80
2019-02-18T18:30:03.327Z,7.70
2019-02-18T18:32:30.899Z,7.70
2019-02-18T18:34:58.467Z,7.60
2019-02-18T18:37:26.035Z,7.50
2019-02-18T18:39:54.366Z,7.50
2019-02-18T18:42:23.840Z,7.50
2019-02-18T18:44:51.423Z,7.40
2019-02-18T18:47:19.010Z,7.30
2019-02-18T18:49:46.571Z,7.20
2019-02-18T18:52:14.145Z,7.10
2019-02-18T18:54:42.482Z,6.80
2019-02-18T18:57:10.056Z,6.80
2019-02-18T18:59:37.664Z,6.80
2019-02-18T19:02:05.236Z,6.70
2019-02-18T19:04:32.823Z,6.70
2019-02-18T19:07:00.411Z,6.70
2019-02-18T19:09:28.746Z,6.50
2019-02-18T19:11:56.323Z,6.50
2019-02-18T19:14:24.791Z,6.50
2019-02-18T19:16:52.360Z,6.40
2019-02-18T19:19:19.935Z,6.30
2019-02-18T19:21:47.506Z,6.20
2019-02-18T19:24:16.984Z,6.20
2019-02-18T19:26:45.472Z,6.10
2019-02-18T19:29:13.043Z,6.00
2019-02-18T19:31:40.647Z,6.00
2019-02-18T19:34:08.217Z,5.80
2019-02-18T19:36:35.788Z,5.80
2019-02-18T19:39:03.547Z,5.70
2019-02-18T19:41:31.921Z,5.60
2019-02-18T19:44:01.427Z,5.50
2019-02-18T19:46:29.049Z,5.50
2019-02-18T19:48:57.746Z,5.40
2019-02-18T19:51:24.251Z,5.30
2019-02-18T19:53:51.827Z,5.20
2019-02-18T19:56:19.399Z,5.20
2019-02-18T19:58:46.970Z,5.10
2019-02-18T20:01:14.553Z,4.90
2019-02-18T20:03:42.160Z,4.90
2019-02-18T20:06:09.737Z,4.90
2019-02-18T20:08:37.308Z,4.80
2019-02-18T20:11:04.879Z,4.80
2019-02-18T20:13:32.444Z,4.80
2019-02-18T20:16:00.775Z,4.70
2019-02-18T20:18:28.347Z,4.70
2019-02-18T20:20:55.982Z,4.80
2019-02-18T20:23:23.550Z,4.60
2019-02-18T20:25:51.119Z,4.60
2019-02-18T20:28:18.696Z,4.50
2019-02-18T20:30:46.260Z,4.60
2019-02-18T20:33:15.749Z,4.60
2019-02-18T20:35:43.334Z,4.40
2019-02-18T20:38:10.903Z,4.60
2019-02-18T20:40:38.475Z,4.50
2019-02-18T20:43:06.045Z,4.60
2019-02-18T20:45:35.532Z,4.50
2019-02-18T20:48:03.113Z,4.70
2019-02-18T20:50:30.692Z,4.60
2019-02-18T20:52:59.071Z,4.50
2019-02-18T20:55:26.643Z,4.50
2019-02-18T20:57:54.216Z,4.50
2019-02-18T21:00:21.798Z,4.40
2019-02-18T21:02:49.384Z,4.50
2019-02-18T21:05:16.947Z,4.40
2019-02-18T21:07:44.516Z,4.40
2019-02-18T21:10:14.856Z,4.30
2019-02-18T21:12:42.432Z,4.30
2019-02-18T21:15:11.731Z,4.30
2019-02-18T21:17:39.301Z,4.30
2019-02-18T21:20:07.658Z,4.30
2019-02-18T21:22:35.224Z,4.40
2019-02-18T21:25:02.832Z,4.40
2019-02-18T21:27:30.404Z,4.50
2019-02-18T21:29:59.912Z,4.40
2019-02-18T21:32:28.241Z,4.30
2019-02-18T21:34:55.811Z,4.30
2019-02-18T21:37:23.382Z,4.30
2019-02-18T21:39:50.940Z,4.30
2019-02-18T21:42:18.544Z,4.30
2019-02-18T21:44:46.111Z,4.30
2019-02-18T21:47:13.682Z,4.40
2019-02-18T21:49:41.243Z,4.60
2019-02-18T21:52:08.819Z,4.70
2019-02-18T21:54:36.378Z,4.80
2019-02-18T21:57:03.943Z,4.90
2019-02-18T21:59:32.316Z,4.70
2019-02-18T22:01:59.876Z,4.70
2019-02-18T22:04:27.451Z,4.80
2019-02-18T22:06:55.019Z,4.80
2019-02-18T22:09:22.614Z,4.60
2019-02-18T22:11:50.179Z,4.50
2019-02-18T22:14:17.742Z,4.50
2019-02-18T22:16:45.350Z,4.40
2019-02-18T22:19:12.910Z,4.30
2019-02-18T22:21:40.475Z,4.20
2019-02-18T22:24:08.032Z,4.20
2019-02-18T22:26:35.600Z,4.30
2019-02-18T22:29:03.935Z,4.30
2019-02-18T22:31:31.496Z,4.30
2019-02-18T22:34:00.465Z,4.40
2019-02-18T22:36:28.059Z,4.50
2019-02-18T22:38:57.551Z,4.50
2019-02-18T22:41:26.105Z,4.20
2019-02-18T22:43:53.667Z,4.10
2019-02-18T22:46:21.315Z,4.10
2019-02-18T22:48:49.093Z,4.20
2019-02-18T22:51:16.732Z,4.20
2019-02-18T22:53:44.287Z,4.30
2019-02-18T22:56:11.855Z,4.30
2019-02-18T22:58:39.411Z,4.30
2019-02-18T23:01:06.986Z,4.30
2019-02-18T23:03:34.555Z,4.10
2019-02-18T23:06:02.170Z,4.00
2019-02-18T23:08:30.696Z,3.90
2019-02-18T23:10:58.307Z,4.00
2019-02-18T23:13:26.791Z,4.20
2019-02-18T23:15:56.522Z,4.30
2019-02-18T23:18:25.708Z,4.30
2019-02-18T23:20:53.367Z,4.30
2019-02-18T23:23:20.934Z,4.30
2019-02-18T23:25:48.691Z,4.30
2019-02-18T23:28:16.294Z,4.40
2019-02-18T23:30:43.851Z,4.40
2019-02-18T23:33:11.440Z,4.10
2019-02-18T23:35:39.071Z,4.00
2019-02-18T23:38:06.634Z,3.80
2019-02-18T23:40:36.113Z,3.70
2019-02-18T23:43:03.667Z,3.70
2019-02-18T23:45:31.294Z,3.70
2019-02-18T23:48:00.762Z,3.70
2019-02-18T23:50:29.599Z,3.70
2019-02-18T23:52:57.188Z,3.60
2019-02-18T23:55:24.743Z,3.60
2019-02-18T23:57:52.296Z,3.70
